createdAt,value
2023-03-06T00:04:45.648Z,20.00
2023-03-06T00:09:38.276Z,20.90
2023-03-06T00:14:30.923Z,18.90
2023-03-06T00:19:24.526Z,20.30
2023-03-06T00:24:17.433Z,20.40
2023-03-06T00:29:10.090Z,18.70
2023-03-06T00:34:03.938Z,19.70
2023-03-06T00:38:56.718Z,21.50
2023-03-06T00:43:51.518Z,19.20
2023-03-06T00:48:44.951Z,18.40
2023-03-06T00:53:38.377Z,18.50
2023-03-06T00:58:31.097Z,17.90
2023-03-06T01:03:23.729Z,19.00
2023-03-06T01:08:17.802Z,18.50
2023-03-06T01:13:10.807Z,16.50
2023-03-06T01:18:03.519Z,17.30
2023-03-06T01:22:56.777Z,17.90
2023-03-06T01:27:49.377Z,16.00
2023-03-06T01:32:42.164Z,18.80
2023-03-06T01:37:37.650Z,17.20
2023-03-06T01:42:32.069Z,17.10
2023-03-06T01:47:24.859Z,18.00
2023-03-06T01:52:23.087Z,15.90
2023-03-06T01:57:30.055Z,17.80
2023-03-06T02:02:23.621Z,17.70
2023-03-06T02:07:21.566Z,19.80
2023-03-06T02:12:18.839Z,19.10
2023-03-06T02:22:07.275Z,19.80
2023-03-06T02:27:02.071Z,18.80
2023-03-06T02:31:54.817Z,20.60
2023-03-06T02:36:51.664Z,20.60
2023-03-06T02:41:44.490Z,18.50
2023-03-06T02:46:38.890Z,18.30
2023-03-06T02:51:31.560Z,19.80
2023-03-06T02:56:24.328Z,21.10
2023-03-06T03:01:17.227Z,20.10
2023-03-06T03:06:10.035Z,18.40
2023-03-06T03:11:03.880Z,17.60
2023-03-06T03:16:09.093Z,18.70
2023-03-06T03:21:01.862Z,19.10
2023-03-06T03:25:54.886Z,18.10
2023-03-06T03:30:48.192Z,18.70
2023-03-06T03:35:41.487Z,17.10
2023-03-06T03:40:34.344Z,19.50
2023-03-06T03:45:27.062Z,17.80
2023-03-06T03:50:20.574Z,18.20
2023-03-06T03:55:13.649Z,19.30
2023-03-06T04:00:08.151Z,18.20
2023-03-06T04:05:07.072Z,16.90
2023-03-06T04:10:00.161Z,18.60
2023-03-06T04:14:53.607Z,18.50
2023-03-06T04:19:46.373Z,19.00
2023-03-06T04:24:41.629Z,18.70
2023-03-06T04:29:34.736Z,17.80
2023-03-06T04:34:27.549Z,18.20
2023-03-06T04:39:20.298Z,18.00
2023-03-06T04:44:13.823Z,15.10
2023-03-06T04:49:06.538Z,17.80
2023-03-06T04:53:59.288Z,13.70
2023-03-06T04:58:51.979Z,18.50
2023-03-06T05:03:44.584Z,17.90
2023-03-06T05:08:37.374Z,17.50
2023-03-06T05:13:30.160Z,17.70
2023-03-06T05:18:23.112Z,18.20
2023-03-06T05:23:16.274Z,19.30
2023-03-06T05:28:09.252Z,20.40
2023-03-06T05:33:02.443Z,20.00
2023-03-06T05:37:55.093Z,18.70
2023-03-06T05:42:47.741Z,22.60
2023-03-06T05:47:40.425Z,22.10
2023-03-06T05:52:33.103Z,21.80
2023-03-06T05:57:27.664Z,23.20
2023-03-06T06:02:20.916Z,25.20
2023-03-06T06:07:15.655Z,22.90
2023-03-06T06:12:11.490Z,23.20
2023-03-06T06:17:04.249Z,25.70
2023-03-06T06:21:57.042Z,27.10
2023-03-06T06:26:58.000Z,27.60
2023-03-06T06:31:52.230Z,27.60
2023-03-06T06:36:45.632Z,26.50
2023-03-06T06:41:56.996Z,28.20
2023-03-06T06:52:03.554Z,29.60
2023-03-06T06:56:56.203Z,28.80
2023-03-06T07:01:48.892Z,28.10
2023-03-06T07:06:42.514Z,26.90
2023-03-06T07:11:35.755Z,24.20
2023-03-06T07:16:28.790Z,24.10
2023-03-06T07:21:24.511Z,21.00
2023-03-06T07:26:17.215Z,24.00
2023-03-06T07:31:11.632Z,22.90
2023-03-06T07:36:04.874Z,24.10
2023-03-06T07:40:57.526Z,24.10
2023-03-06T07:45:57.842Z,23.80
2023-03-06T07:51:02.963Z,24.00
2023-03-06T07:55:55.949Z,23.60
2023-03-06T08:00:48.867Z,24.00
2023-03-06T08:05:41.813Z,21.30
2023-03-06T08:10:34.569Z,21.40
2023-03-06T08:15:27.253Z,18.20
2023-03-06T08:20:19.976Z,18.90
2023-03-06T08:25:15.222Z,17.40
2023-03-06T08:30:09.649Z,17.50
2023-03-06T08:35:04.683Z,17.50
2023-03-06T08:39:57.440Z,16.70
2023-03-06T08:44:50.664Z,16.40
2023-03-06T08:49:43.332Z,14.50
2023-03-06T08:54:37.440Z,14.10
2023-03-06T08:59:30.212Z,15.70
2023-03-06T09:04:22.835Z,13.20
2023-03-06T09:09:15.822Z,13.30
2023-03-06T09:14:08.741Z,11.90
2023-03-06T09:19:01.756Z,10.60
2023-03-06T09:23:54.412Z,10.20
2023-03-06T09:28:47.844Z,9.60
2023-03-06T09:33:40.623Z,10.30
2023-03-06T09:38:33.480Z,9.60
2023-03-06T09:43:48.170Z,10.10
2023-03-06T09:49:10.548Z,8.00
2023-03-06T09:54:14.554Z,8.50
2023-03-06T09:59:20.427Z,7.90
2023-03-06T10:04:48.026Z,8.50
2023-03-06T10:09:47.499Z,8.80
2023-03-06T10:14:48.471Z,9.00
2023-03-06T10:19:43.300Z,8.50
2023-03-06T10:24:56.000Z,8.10
2023-03-06T10:30:07.581Z,9.20
2023-03-06T10:35:05.393Z,9.60
2023-03-06T10:40:10.275Z,9.10
2023-03-06T10:45:09.564Z,9.00
2023-03-06T10:50:05.642Z,10.90
2023-03-06T10:55:23.947Z,11.00
2023-03-06T11:00:37.023Z,11.10
2023-03-06T11:05:29.798Z,10.40
2023-03-06T11:10:24.004Z,8.40
2023-03-06T11:15:19.035Z,8.40
2023-03-06T11:20:20.799Z,8.70
2023-03-06T11:25:17.889Z,7.20
2023-03-06T11:30:20.158Z,10.70
2023-03-06T11:35:25.791Z,9.90
2023-03-06T11:40:33.114Z,8.40
2023-03-06T11:45:37.293Z,9.40
2023-03-06T11:50:39.004Z,8.30
2023-03-06T11:55:31.576Z,8.40
2023-03-06T12:00:40.084Z,10.70
2023-03-06T12:05:50.435Z,11.00
2023-03-06T12:10:53.601Z,9.80
2023-03-06T12:16:04.929Z,9.90
2023-03-06T12:21:39.453Z,7.60
2023-03-06T12:26:51.001Z,7.00
2023-03-06T12:32:06.425Z,7.80
2023-03-06T12:37:17.292Z,9.40
2023-03-06T12:42:35.556Z,10.20
2023-03-06T12:52:32.527Z,13.30
2023-03-06T12:57:26.660Z,14.20
2023-03-06T13:02:44.008Z,17.00
2023-03-06T13:08:14.490Z,15.00
2023-03-06T13:13:32.621Z,16.00
2023-03-06T13:18:25.229Z,15.70
2023-03-06T13:23:30.125Z,16.50
2023-03-06T13:28:40.230Z,14.10
2023-03-06T13:33:33.216Z,14.20
2023-03-06T13:39:11.150Z,14.20
2023-03-06T13:44:28.253Z,14.30
2023-03-06T13:49:25.776Z,14.50
2023-03-06T13:59:59.629Z,13.20
2023-03-06T14:05:00.911Z,10.40
2023-03-06T14:10:15.677Z,14.30
2023-03-06T14:15:32.815Z,15.20
2023-03-06T14:20:34.568Z,15.60
2023-03-06T14:25:32.916Z,14.50
2023-03-06T14:30:27.105Z,15.80
2023-03-06T14:35:26.719Z,16.10
2023-03-06T14:40:31.447Z,17.30
2023-03-06T14:45:25.171Z,19.10
2023-03-06T14:50:30.319Z,20.20
2023-03-06T14:55:25.654Z,22.30
2023-03-06T15:00:22.508Z,20.10
2023-03-06T15:05:28.420Z,22.60
2023-03-06T15:10:30.984Z,23.90
2023-03-06T15:15:30.256Z,25.90
2023-03-06T15:20:42.459Z,24.40
2023-03-06T15:25:36.056Z,25.20
2023-03-06T15:30:31.024Z,21.00
2023-03-06T15:35:30.280Z,20.90
2023-03-06T15:40:25.519Z,18.40
2023-03-06T15:45:21.899Z,20.10
2023-03-06T15:50:20.922Z,19.90
2023-03-06T15:55:15.019Z,22.40
2023-03-06T16:00:26.453Z,21.40
2023-03-06T16:05:20.924Z,22.30
2023-03-06T16:10:15.714Z,21.40
2023-03-06T16:15:20.099Z,21.20
2023-03-06T16:20:23.821Z,22.00
2023-03-06T16:25:18.444Z,22.80
2023-03-06T16:30:20.853Z,20.40
2023-03-06T16:35:14.877Z,21.10
2023-03-06T16:40:19.324Z,21.20
2023-03-06T16:45:12.548Z,18.50
2023-03-06T16:50:05.941Z,20.80
2023-03-06T16:54:58.557Z,21.50
2023-03-06T16:59:52.304Z,20.40
2023-03-06T17:04:45.315Z,22.20
2023-03-06T17:09:38.007Z,21.80
2023-03-06T17:14:30.976Z,24.30
2023-03-06T17:19:23.647Z,23.10
2023-03-06T17:24:16.830Z,24.60
2023-03-06T17:29:12.157Z,26.90
2023-03-06T17:34:50.096Z,24.60
2023-03-06T17:39:49.917Z,20.70
2023-03-06T17:44:43.000Z,19.50
2023-03-06T17:49:35.795Z,19.30
2023-03-06T17:54:30.247Z,16.80
2023-03-06T17:59:22.986Z,19.10
2023-03-06T18:04:16.974Z,20.00
2023-03-06T18:09:10.292Z,20.80
2023-03-06T18:14:05.376Z,20.00
2023-03-06T18:18:58.578Z,21.40
2023-03-06T18:23:51.901Z,23.40
2023-03-06T18:28:47.439Z,21.50
2023-03-06T18:33:40.095Z,22.30
2023-03-06T18:38:33.521Z,21.40
2023-03-06T18:43:26.256Z,22.10
2023-03-06T18:48:18.983Z,20.60
2023-03-06T18:53:11.774Z,22.90
2023-03-06T18:58:04.529Z,25.00
2023-03-06T19:02:57.233Z,22.50
2023-03-06T19:07:49.972Z,22.20
2023-03-06T19:12:42.780Z,21.90
2023-03-06T19:17:37.715Z,22.10
2023-03-06T19:22:31.610Z,22.80
2023-03-06T19:27:24.308Z,21.50
2023-03-06T19:32:17.188Z,21.00
2023-03-06T19:37:10.073Z,20.50
2023-03-06T19:42:04.714Z,21.50
2023-03-06T19:46:57.693Z,22.50
2023-03-06T19:51:50.450Z,22.10
2023-03-06T19:56:43.390Z,21.50
2023-03-06T20:01:36.232Z,22.10
2023-03-06T20:06:33.603Z,20.40
2023-03-06T20:11:29.904Z,23.50
2023-03-06T20:16:30.202Z,21.40
2023-03-06T20:21:23.383Z,19.80
2023-03-06T20:26:17.172Z,19.60
2023-03-06T20:31:19.571Z,19.40
2023-03-06T20:36:40.517Z,21.00
2023-03-06T20:41:33.966Z,18.70
2023-03-06T20:47:21.875Z,19.50
2023-03-06T20:53:14.029Z,20.50
2023-03-06T20:58:42.452Z,19.80
2023-03-06T21:03:35.893Z,18.90
2023-03-06T21:08:28.963Z,17.30
2023-03-06T21:18:55.216Z,13.10
2023-03-06T21:23:49.580Z,13.90
2023-03-06T21:28:42.816Z,12.00
2023-03-06T21:33:35.697Z,10.90
2023-03-06T21:38:29.238Z,11.10
2023-03-06T21:43:22.004Z,11.00
2023-03-06T21:48:16.274Z,10.10
2023-03-06T21:53:10.089Z,12.20
2023-03-06T21:58:02.828Z,12.20
2023-03-06T22:02:55.610Z,12.10
2023-03-06T22:07:48.535Z,12.30
2023-03-06T22:12:42.063Z,13.20
2023-03-06T22:17:34.820Z,13.10
2023-03-06T22:22:27.867Z,14.20
2023-03-06T22:27:20.605Z,14.20
2023-03-06T22:32:13.445Z,12.50
2023-03-06T22:37:06.189Z,16.20
2023-03-06T22:41:59.186Z,14.90
2023-03-06T22:46:52.215Z,16.20
2023-03-06T22:51:44.888Z,17.00
2023-03-06T22:56:37.850Z,17.80
2023-03-06T23:01:33.818Z,18.40
2023-03-06T23:06:31.942Z,20.90
2023-03-06T23:11:25.679Z,19.80
2023-03-06T23:16:38.521Z,19.70
2023-03-06T23:21:49.963Z,20.20
2023-03-06T23:27:02.585Z,21.40
2023-03-06T23:31:55.261Z,21.80
2023-03-06T23:36:50.611Z,22.70
2023-03-06T23:41:44.558Z,24.00
2023-03-06T23:46:37.808Z,21.80
2023-03-06T23:51:30.538Z,21.80
2023-03-06T23:56:24.238Z,20.10
